createdAt,value
2023-02-18T00:12:52.356Z,27.8336
2023-02-18T00:27:54.252Z,27.6188
2023-02-18T00:42:56.143Z,27.0889
2023-02-18T00:57:58.117Z,28.3177
2023-02-18T01:13:00.156Z,28.522
2023-02-18T01:28:02.096Z,27.0796
2023-02-18T01:43:04.063Z,28.2038
2023-02-18T01:58:06.052Z,28.197
2023-02-18T02:13:07.972Z,27.1508
2023-02-18T02:28:09.923Z,28.2397
2023-02-18T02:43:11.895Z,27.1025
2023-02-18T02:58:13.797Z,28.3468
2023-02-18T03:13:15.707Z,27.7228
2023-02-18T03:28:17.622Z,27.8695
2023-02-18T03:43:19.454Z,28.1778
2023-02-18T03:58:21.389Z,27.9927
2023-02-18T04:13:23.388Z,28.2329
2023-02-18T04:28:25.395Z,27.8398
2023-02-18T04:43:27.492Z,28.2038
2023-02-18T04:58:29.415Z,26.8716
2023-02-18T05:13:31.330Z,28.2818
2023-02-18T05:28:33.176Z,27.1836
2023-02-18T05:43:35.072Z,27.9376
2023-02-18T05:58:36.985Z,27.833
2023-02-18T06:13:38.933Z,28.2168
2023-02-18T06:28:40.852Z,27.6126
2023-02-18T06:43:42.857Z,27.4077
2023-02-18T06:58:44.837Z,27.6776
2023-02-18T07:13:46.888Z,27.8169
2023-02-18T07:28:48.855Z,28.1518
2023-02-18T07:43:50.793Z,27.4046
2023-02-18T07:58:52.642Z,27.8788
2023-02-18T08:13:54.634Z,27.1737
2023-02-18T08:28:56.533Z,28.2979
2023-02-18T08:43:58.432Z,27.1508
2023-02-18T08:59:00.332Z,28.0187
2023-02-18T09:14:02.482Z,27.7581
2023-02-18T09:29:04.458Z,28.1747
2023-02-18T09:44:06.379Z,27.6869
2023-02-18T09:59:08.286Z,26.793
2023-02-18T10:14:10.300Z,26.429
2023-02-18T10:29:12.233Z,25.9901
2023-02-18T10:44:14.373Z,26.1201
2023-02-18T10:59:16.319Z,25.35
2023-02-18T11:14:18.245Z,25.5673
2023-02-18T11:29:20.234Z,25.0993
2023-02-18T11:44:22.145Z,24.8294
2023-02-18T11:59:24.090Z,25.6781
2023-02-18T12:14:26.011Z,25.3265
2023-02-18T12:29:28.176Z,24.6963
2023-02-18T12:44:30.106Z,25.5382
2023-02-18T12:59:32.011Z,25.0572
2023-02-18T13:14:33.922Z,24.7223
2023-02-18T13:29:35.883Z,25.0374
2023-02-18T13:44:37.923Z,25.3884
2023-02-18T13:59:39.809Z,24.7545
2023-02-18T14:14:41.701Z,24.7093
2023-02-18T14:29:43.713Z,25.0281
2023-02-18T14:44:45.625Z,24.3812
2023-02-18T14:59:48.521Z,24.6505
2023-02-18T15:14:50.562Z,25.2132
2023-02-18T15:29:52.478Z,24.5273
2023-02-18T15:44:54.386Z,24.4914
2023-02-18T15:59:56.309Z,25.6614
2023-02-18T16:14:58.264Z,24.5013
2023-02-18T16:30:00.394Z,24.3385
2023-02-18T16:45:02.393Z,25.3822
2023-02-18T17:00:04.376Z,25.5444
2023-02-18T17:15:06.320Z,25.3432
2023-02-18T17:30:08.444Z,25.4014
2023-02-18T17:45:10.380Z,24.9755
2023-02-18T18:00:12.289Z,25.6391
2023-02-18T18:15:14.071Z,25.1222
2023-02-18T18:30:16.066Z,26.3448
2023-02-18T18:45:18.007Z,27.3941
2023-02-18T19:00:19.952Z,26.91
2023-02-18T19:15:21.976Z,26.663
2023-02-18T19:30:24.007Z,26.6141
2023-02-18T19:45:25.965Z,26.6209
2023-02-18T20:00:27.903Z,27.534
2023-02-18T20:15:29.839Z,27.2449
2023-02-18T20:30:31.882Z,27.2319
2023-02-18T20:45:33.866Z,27.1768
2023-02-18T21:00:35.842Z,27.2969
2023-02-18T21:15:37.766Z,27.4009
2023-02-18T21:30:39.737Z,27.482
2023-02-18T21:45:41.652Z,27.404
2023-02-18T22:00:43.651Z,27.339
2023-02-18T22:15:45.596Z,27.196
2023-02-18T22:30:47.498Z,27.3681
2023-02-18T22:45:49.448Z,26.9719
2023-02-18T23:00:51.651Z,27.1762
2023-02-18T23:15:53.661Z,27.0753
2023-02-18T23:30:55.590Z,26.481
2023-02-18T23:45:57.575Z,26.3931
